This is the latest recevied weather packets stored in our database for station/object S50APT-10. If no packets are shown the sender has not sent any weather packets the latest 10 day(s).
| Time | Temp. | Humidity | Pressure | Rain* | Wind** | Luminosity | Snow |
|---|---|---|---|---|---|---|---|
| 1777517027 | 3.33° C | 44% | 1029.6 hPa | - | - | - | - |
| 1777516092 | 3.33° C | 43% | 1029.5 hPa | - | - | - | - |
| 1777515192 | 3.33° C | 43% | 1029.5 hPa | - | - | - | - |
| 1777514278 | 3.89° C | 41% | 1029.5 hPa | - | - | - | - |
| 1777513357 | 3.89° C | 40% | 1029.5 hPa | - | - | - | - |
| 1777511527 | 4.44° C | 39% | 1029.4 hPa | - | - | - | - |
| 1777510616 | 4.44° C | 38% | 1029.2 hPa | - | - | - | - |
| 1777508810 | 5° C | 37% | 1028.9 hPa | - | - | - | - |
| 1777507910 | 5° C | 37% | 1028.8 hPa | - | - | - | - |
| 1777505208 | 5.56° C | 38% | 1028.4 hPa | - | - | - | - |
| 1777502505 | 6.11° C | 43% | 1028.1 hPa | - | - | - | - |
| 1777500704 | 6.11° C | 46% | 1027.9 hPa | - | - | - | - |
| 1777499804 | 6.11° C | 50% | 1027.8 hPa | - | - | - | - |
| 1777497102 | 6.11° C | 63% | 1027.3 hPa | - | - | - | - |
| 1777496201 | 6.11° C | 68% | 1027.2 hPa | - | - | - | - |
| 1777495301 | 6.11° C | 77% | 1027 hPa | - | - | - | - |
| 1777479985 | 11.11° C | 58% | 1024.2 hPa | - | - | - | - |
| 1777478184 | 10.56° C | 60% | 1024.4 hPa | - | - | - | - |
| 1777470980 | 14.44° C | 40% | 1024.6 hPa | - | - | - | - |
| 1777468278 | 13.89° C | 41% | 1024.7 hPa | - | - | - | - |
| 1777464675 | 12.22° C | 45% | 1024.8 hPa | - | - | - | - |
| 1777460170 | 13.89° C | 38% | 1024.9 hPa | - | - | - | - |
| 1777457468 | 12.78° C | 39% | 1024.9 hPa | - | - | - | - |
| 1777456567 | 12.22° C | 41% | 1025 hPa | - | - | - | - |
| 1777455666 | 13.89° C | 38% | 1025 hPa | - | - | - | - |
* Rain since midnight (hover to see other rain measurements)
** Current wind speed in m/s (hover to see current wind gust speed)